Etusivu
METAR-TAF:

METAR-TAF

Lentoasemat :

Cluj-Napoca, Romania

Leveyspiiri: 46-47N, Pituuspiiri: 023-34E, korkeus merenpinnasta: 315 m

Tämänhetkinen sää

Tämä raportti tehtiin 19 minuuttia sitten, kello 01.30 UTC
Tuuli 1 kn eri suunnista
Lämpötila 0°C
Kosteus 93%
Ilmanpaine 997 hPa
Näkyvyys 10 km tai enemmän
ei pilviä alle 1500 m:ssä eikä cumulonimbus-pilviä

METAR: LRCL 140130Z VRB01KT CAVOK 00/M01 Q0997

Aika: 03:49 (01:49 UTC)

Sääennuste

Tämä raportti tehtiin 2 tuntia ja 49 minuuttia sitten, kello 23.00 UTC
Ennuste voimassa 14. päivästä klo 00 UTC - 14. päivään klo 09 UTC
Tuuli 4 kn eri suunnista
Näkyvyys 10 km tai enemmän
ei pilviä alle 1500 m:ssä eikä cumulonimbus-pilviä
Ajoittain
14. päivästä klo 00 UTC - 14. päivään klo 06 UTC
Näkyvyys: 3000 m
Hajonneita pilviä 500 ft:n korkeudessa
utua

TAF: LRCL 132300Z 1400/1409 VRB04KT CAVOK TEMPO 1400/1406 3000 BR BKN005

Säähavainnot ja -ennusteet yli 4000 lentoasemalta (METAR- ja TAF-raportit).

Käytössä olevat sääasemat on merkitty karttaan keltaisilla ja punaisilla pisteillä.

Aseta hiiri pisteen päälle nähdäksesi sääaseman nimen.

Klikkaa sitten nähdäksesi säähavainnot ja -ennusteet.

Kartan vaihtaminen: klikkaa mustalla rastilla varustettuja vihreitä pisteitä, niin voit zoomata sisään; viivalla varustettua vihreää pistettä, niin voit zoomata ulos tai vihreitä nuolia, niin pääset viereisille kartoille.


METAR-TAF: